sensor_id;sensor_type;location;lat;lon;timestamp;P1;durP1;ratioP1;P2;durP2;ratioP2
18917;SDS011;9591;52.742;13.650;2023-07-30T00:01:04;10.43;;;5.00;;
18917;SDS011;9591;52.742;13.650;2023-07-30T00:03:52;13.20;;;4.67;;
18917;SDS011;9591;52.742;13.650;2023-07-30T00:06:41;6.67;;;4.50;;
18917;SDS011;9591;52.742;13.650;2023-07-30T00:09:29;11.83;;;4.83;;
18917;SDS011;9591;52.742;13.650;2023-07-30T00:12:17;7.23;;;4.47;;
18917;SDS011;9591;52.742;13.650;2023-07-30T00:15:05;7.70;;;4.73;;
18917;SDS011;9591;52.742;13.650;2023-07-30T00:17:52;9.50;;;4.53;;
18917;SDS011;9591;52.742;13.650;2023-07-30T00:20:39;7.23;;;4.67;;
18917;SDS011;9591;52.742;13.650;2023-07-30T00:23:27;6.30;;;4.53;;
18917;SDS011;9591;52.742;13.650;2023-07-30T00:26:14;11.27;;;4.80;;
18917;SDS011;9591;52.742;13.650;2023-07-30T00:29:01;8.13;;;4.50;;
18917;SDS011;9591;52.742;13.650;2023-07-30T00:31:48;12.00;;;4.90;;
18917;SDS011;9591;52.742;13.650;2023-07-30T00:34:35;9.97;;;4.97;;
18917;SDS011;9591;52.742;13.650;2023-07-30T00:37:22;14.00;;;5.00;;
18917;SDS011;9591;52.742;13.650;2023-07-30T00:40:11;7.63;;;4.30;;
18917;SDS011;9591;52.742;13.650;2023-07-30T00:42:58;7.60;;;4.53;;
18917;SDS011;9591;52.742;13.650;2023-07-30T00:45:45;9.13;;;4.77;;
18917;SDS011;9591;52.742;13.650;2023-07-30T00:48:32;14.07;;;5.57;;
18917;SDS011;9591;52.742;13.650;2023-07-30T00:51:19;11.33;;;4.40;;
18917;SDS011;9591;52.742;13.650;2023-07-30T00:54:06;6.73;;;4.70;;
18917;SDS011;9591;52.742;13.650;2023-07-30T00:56:55;7.57;;;4.13;;
18917;SDS011;9591;52.742;13.650;2023-07-30T00:59:41;10.43;;;4.23;;
18917;SDS011;9591;52.742;13.650;2023-07-30T01:02:29;7.97;;;4.30;;
18917;SDS011;9591;52.742;13.650;2023-07-30T01:05:16;11.33;;;4.77;;
18917;SDS011;9591;52.742;13.650;2023-07-30T01:08:03;10.43;;;4.80;;
18917;SDS011;9591;52.742;13.650;2023-07-30T01:10:50;7.37;;;4.60;;
18917;SDS011;9591;52.742;13.650;2023-07-30T01:13:39;7.40;;;4.57;;
18917;SDS011;9591;52.742;13.650;2023-07-30T01:16:26;6.90;;;4.60;;
18917;SDS011;9591;52.742;13.650;2023-07-30T01:19:13;6.83;;;4.47;;
18917;SDS011;9591;52.742;13.650;2023-07-30T01:22:02;10.10;;;4.90;;
18917;SDS011;9591;52.742;13.650;2023-07-30T01:24:49;7.40;;;4.07;;
18917;SDS011;9591;52.742;13.650;2023-07-30T01:27:37;9.90;;;4.17;;
18917;SDS011;9591;52.742;13.650;2023-07-30T01:30:27;5.67;;;4.00;;
18917;SDS011;9591;52.742;13.650;2023-07-30T01:33:16;5.53;;;4.50;;
18917;SDS011;9591;52.742;13.650;2023-07-30T01:36:03;10.63;;;4.70;;
18917;SDS011;9591;52.742;13.650;2023-07-30T01:38:53;11.87;;;3.97;;
18917;SDS011;9591;52.742;13.650;2023-07-30T01:41:40;6.27;;;4.50;;
18917;SDS011;9591;52.742;13.650;2023-07-30T01:44:27;7.13;;;4.00;;
18917;SDS011;9591;52.742;13.650;2023-07-30T01:47:14;5.13;;;4.13;;
18917;SDS011;9591;52.742;13.650;2023-07-30T01:50:01;10.67;;;4.60;;
18917;SDS011;9591;52.742;13.650;2023-07-30T01:52:48;11.40;;;4.60;;
18917;SDS011;9591;52.742;13.650;2023-07-30T01:55:36;9.07;;;4.40;;
18917;SDS011;9591;52.742;13.650;2023-07-30T01:58:24;7.53;;;4.43;;
18917;SDS011;9591;52.742;13.650;2023-07-30T02:01:11;5.13;;;4.07;;
18917;SDS011;9591;52.742;13.650;2023-07-30T02:03:58;5.40;;;4.00;;
18917;SDS011;9591;52.742;13.650;2023-07-30T02:06:45;5.77;;;3.73;;
18917;SDS011;9591;52.742;13.650;2023-07-30T02:09:32;10.17;;;4.10;;
18917;SDS011;9591;52.742;13.650;2023-07-30T02:12:20;6.10;;;4.00;;
18917;SDS011;9591;52.742;13.650;2023-07-30T02:15:08;7.87;;;4.17;;
18917;SDS011;9591;52.742;13.650;2023-07-30T02:17:55;7.37;;;4.73;;
18917;SDS011;9591;52.742;13.650;2023-07-30T02:20:42;9.87;;;4.50;;
18917;SDS011;9591;52.742;13.650;2023-07-30T02:23:28;10.50;;;4.37;;
18917;SDS011;9591;52.742;13.650;2023-07-30T02:26:15;11.43;;;4.40;;
18917;SDS011;9591;52.742;13.650;2023-07-30T02:29:04;6.57;;;4.33;;
18917;SDS011;9591;52.742;13.650;2023-07-30T02:31:51;10.37;;;4.03;;
18917;SDS011;9591;52.742;13.650;2023-07-30T02:34:37;11.33;;;4.47;;
18917;SDS011;9591;52.742;13.650;2023-07-30T02:37:24;12.03;;;4.97;;
18917;SDS011;9591;52.742;13.650;2023-07-30T02:40:11;8.13;;;4.37;;
18917;SDS011;9591;52.742;13.650;2023-07-30T02:42:58;10.53;;;4.10;;
18917;SDS011;9591;52.742;13.650;2023-07-30T02:45:48;8.47;;;4.10;;
18917;SDS011;9591;52.742;13.650;2023-07-30T02:48:35;9.27;;;4.30;;
18917;SDS011;9591;52.742;13.650;2023-07-30T02:51:22;8.27;;;4.27;;
18917;SDS011;9591;52.742;13.650;2023-07-30T02:54:09;7.47;;;3.90;;
18917;SDS011;9591;52.742;13.650;2023-07-30T02:56:56;7.17;;;3.87;;
18917;SDS011;9591;52.742;13.650;2023-07-30T02:59:42;6.00;;;4.00;;
18917;SDS011;9591;52.742;13.650;2023-07-30T03:02:31;5.87;;;4.23;;
18917;SDS011;9591;52.742;13.650;2023-07-30T03:05:18;4.23;;;3.80;;
18917;SDS011;9591;52.742;13.650;2023-07-30T03:08:05;4.33;;;3.60;;
18917;SDS011;9591;52.742;13.650;2023-07-30T03:10:52;7.23;;;4.13;;
18917;SDS011;9591;52.742;13.650;2023-07-30T03:13:38;7.47;;;3.80;;
18917;SDS011;9591;52.742;13.650;2023-07-30T03:16:25;6.83;;;3.87;;
18917;SDS011;9591;52.742;13.650;2023-07-30T03:19:13;6.53;;;3.77;;
18917;SDS011;9591;52.742;13.650;2023-07-30T03:22:00;8.70;;;4.20;;
18917;SDS011;9591;52.742;13.650;2023-07-30T03:24:47;6.67;;;4.03;;
18917;SDS011;9591;52.742;13.650;2023-07-30T03:27:34;8.10;;;4.17;;
18917;SDS011;9591;52.742;13.650;2023-07-30T03:30:21;8.70;;;4.33;;
18917;SDS011;9591;52.742;13.650;2023-07-30T03:33:08;12.10;;;4.20;;
18917;SDS011;9591;52.742;13.650;2023-07-30T03:35:56;11.07;;;4.03;;
18917;SDS011;9591;52.742;13.650;2023-07-30T03:38:43;8.87;;;4.37;;
18917;SDS011;9591;52.742;13.650;2023-07-30T03:41:31;16.00;;;4.50;;
18917;SDS011;9591;52.742;13.650;2023-07-30T03:44:18;7.30;;;4.00;;
18917;SDS011;9591;52.742;13.650;2023-07-30T03:47:05;6.53;;;4.30;;
18917;SDS011;9591;52.742;13.650;2023-07-30T03:49:51;12.17;;;4.03;;
18917;SDS011;9591;52.742;13.650;2023-07-30T03:52:40;7.67;;;4.30;;
18917;SDS011;9591;52.742;13.650;2023-07-30T03:55:27;6.70;;;4.47;;
18917;SDS011;9591;52.742;13.650;2023-07-30T03:58:14;10.33;;;4.33;;
18917;SDS011;9591;52.742;13.650;2023-07-30T04:01:01;7.20;;;4.17;;
18917;SDS011;9591;52.742;13.650;2023-07-30T04:03:48;13.40;;;4.47;;
18917;SDS011;9591;52.742;13.650;2023-07-30T04:06:35;7.47;;;3.90;;
18917;SDS011;9591;52.742;13.650;2023-07-30T04:09:23;10.10;;;4.83;;
18917;SDS011;9591;52.742;13.650;2023-07-30T04:12:10;10.03;;;4.40;;
18917;SDS011;9591;52.742;13.650;2023-07-30T04:14:57;7.03;;;4.57;;
18917;SDS011;9591;52.742;13.650;2023-07-30T04:17:45;5.47;;;4.07;;
18917;SDS011;9591;52.742;13.650;2023-07-30T04:20:33;10.03;;;4.67;;
18917;SDS011;9591;52.742;13.650;2023-07-30T04:23:20;10.63;;;4.00;;
18917;SDS011;9591;52.742;13.650;2023-07-30T04:26:08;7.60;;;4.57;;
18917;SDS011;9591;52.742;13.650;2023-07-30T04:28:55;4.97;;;4.03;;
18917;SDS011;9591;52.742;13.650;2023-07-30T04:31:42;10.77;;;4.30;;
18917;SDS011;9591;52.742;13.650;2023-07-30T04:34:29;7.83;;;3.77;;
18917;SDS011;9591;52.742;13.650;2023-07-30T04:37:16;7.97;;;4.47;;
18917;SDS011;9591;52.742;13.650;2023-07-30T04:40:04;11.43;;;5.03;;
18917;SDS011;9591;52.742;13.650;2023-07-30T04:42:52;6.17;;;4.03;;
18917;SDS011;9591;52.742;13.650;2023-07-30T04:45:39;7.47;;;4.70;;
18917;SDS011;9591;52.742;13.650;2023-07-30T04:48:26;6.83;;;4.80;;
18917;SDS011;9591;52.742;13.650;2023-07-30T04:51:13;5.73;;;4.03;;
18917;SDS011;9591;52.742;13.650;2023-07-30T04:54:00;8.63;;;4.37;;
18917;SDS011;9591;52.742;13.650;2023-07-30T04:56:47;8.10;;;3.63;;
18917;SDS011;9591;52.742;13.650;2023-07-30T04:59:35;8.67;;;4.17;;
18917;SDS011;9591;52.742;13.650;2023-07-30T05:02:22;5.17;;;4.20;;
18917;SDS011;9591;52.742;13.650;2023-07-30T05:05:09;9.20;;;4.50;;
18917;SDS011;9591;52.742;13.650;2023-07-30T05:07:56;4.37;;;3.60;;
18917;SDS011;9591;52.742;13.650;2023-07-30T05:10:43;7.87;;;4.10;;
18917;SDS011;9591;52.742;13.650;2023-07-30T05:13:30;6.87;;;4.57;;
18917;SDS011;9591;52.742;13.650;2023-07-30T05:16:18;7.13;;;4.20;;
18917;SDS011;9591;52.742;13.650;2023-07-30T05:19:05;10.70;;;4.50;;
18917;SDS011;9591;52.742;13.650;2023-07-30T05:21:52;6.17;;;4.57;;
18917;SDS011;9591;52.742;13.650;2023-07-30T05:24:39;14.53;;;4.20;;
18917;SDS011;9591;52.742;13.650;2023-07-30T05:27:26;11.10;;;4.50;;
18917;SDS011;9591;52.742;13.650;2023-07-30T05:30:14;7.17;;;4.33;;
18917;SDS011;9591;52.742;13.650;2023-07-30T05:33:02;6.57;;;4.50;;
18917;SDS011;9591;52.742;13.650;2023-07-30T05:35:49;6.47;;;3.93;;
18917;SDS011;9591;52.742;13.650;2023-07-30T05:38:36;4.23;;;3.80;;
18917;SDS011;9591;52.742;13.650;2023-07-30T05:41:23;6.70;;;4.10;;
18917;SDS011;9591;52.742;13.650;2023-07-30T05:44:10;4.37;;;3.67;;
18917;SDS011;9591;52.742;13.650;2023-07-30T05:46:57;3.80;;;3.40;;
18917;SDS011;9591;52.742;13.650;2023-07-30T05:49:45;5.17;;;3.97;;
18917;SDS011;9591;52.742;13.650;2023-07-30T05:52:32;4.77;;;3.43;;
18917;SDS011;9591;52.742;13.650;2023-07-30T05:55:19;7.33;;;4.00;;
18917;SDS011;9591;52.742;13.650;2023-07-30T05:58:06;8.67;;;3.90;;
18917;SDS011;9591;52.742;13.650;2023-07-30T06:00:53;5.60;;;4.10;;
18917;SDS011;9591;52.742;13.650;2023-07-30T06:03:40;9.70;;;4.43;;
18917;SDS011;9591;52.742;13.650;2023-07-30T06:06:28;9.10;;;3.90;;
18917;SDS011;9591;52.742;13.650;2023-07-30T06:09:15;6.40;;;3.77;;
18917;SDS011;9591;52.742;13.650;2023-07-30T06:12:02;3.93;;;3.30;;
18917;SDS011;9591;52.742;13.650;2023-07-30T06:14:49;5.30;;;3.67;;
18917;SDS011;9591;52.742;13.650;2023-07-30T06:17:36;7.37;;;3.50;;
18917;SDS011;9591;52.742;13.650;2023-07-30T06:20:23;6.50;;;4.07;;
18917;SDS011;9591;52.742;13.650;2023-07-30T06:23:11;7.13;;;3.40;;
18917;SDS011;9591;52.742;13.650;2023-07-30T06:25:58;6.87;;;4.10;;
18917;SDS011;9591;52.742;13.650;2023-07-30T06:28:45;9.67;;;3.77;;
18917;SDS011;9591;52.742;13.650;2023-07-30T06:31:34;5.40;;;3.50;;
18917;SDS011;9591;52.742;13.650;2023-07-30T06:34:21;4.13;;;3.20;;
18917;SDS011;9591;52.742;13.650;2023-07-30T06:37:08;3.83;;;3.07;;
18917;SDS011;9591;52.742;13.650;2023-07-30T06:39:56;4.47;;;3.57;;
18917;SDS011;9591;52.742;13.650;2023-07-30T06:42:43;3.60;;;3.23;;
18917;SDS011;9591;52.742;13.650;2023-07-30T06:45:30;4.27;;;3.80;;
18917;SDS011;9591;52.742;13.650;2023-07-30T06:48:17;5.33;;;3.60;;
18917;SDS011;9591;52.742;13.650;2023-07-30T06:51:05;6.60;;;3.50;;
18917;SDS011;9591;52.742;13.650;2023-07-30T06:53:53;4.63;;;3.40;;
18917;SDS011;9591;52.742;13.650;2023-07-30T06:56:41;4.43;;;3.37;;
18917;SDS011;9591;52.742;13.650;2023-07-30T06:59:28;4.83;;;3.03;;
18917;SDS011;9591;52.742;13.650;2023-07-30T07:02:15;4.23;;;3.20;;
18917;SDS011;9591;52.742;13.650;2023-07-30T07:05:02;4.50;;;3.20;;
18917;SDS011;9591;52.742;13.650;2023-07-30T07:07:50;5.33;;;3.30;;
18917;SDS011;9591;52.742;13.650;2023-07-30T07:10:37;3.07;;;2.77;;
18917;SDS011;9591;52.742;13.650;2023-07-30T07:13:25;3.27;;;2.87;;
18917;SDS011;9591;52.742;13.650;2023-07-30T07:16:12;5.87;;;3.20;;
18917;SDS011;9591;52.742;13.650;2023-07-30T07:18:59;5.03;;;2.87;;
18917;SDS011;9591;52.742;13.650;2023-07-30T07:21:46;3.70;;;3.13;;
18917;SDS011;9591;52.742;13.650;2023-07-30T07:24:33;3.63;;;2.67;;
18917;SDS011;9591;52.742;13.650;2023-07-30T07:27:20;7.27;;;2.43;;
18917;SDS011;9591;52.742;13.650;2023-07-30T07:30:10;3.93;;;2.80;;
18917;SDS011;9591;52.742;13.650;2023-07-30T07:32:59;4.83;;;3.27;;
18917;SDS011;9591;52.742;13.650;2023-07-30T07:35:46;3.57;;;2.90;;
18917;SDS011;9591;52.742;13.650;2023-07-30T07:38:33;6.83;;;2.80;;
18917;SDS011;9591;52.742;13.650;2023-07-30T07:41:20;9.87;;;3.10;;
18917;SDS011;9591;52.742;13.650;2023-07-30T07:44:08;3.83;;;2.33;;
18917;SDS011;9591;52.742;13.650;2023-07-30T07:46:56;3.00;;;2.40;;
18917;SDS011;9591;52.742;13.650;2023-07-30T07:49:43;3.73;;;2.40;;
18917;SDS011;9591;52.742;13.650;2023-07-30T07:52:30;5.60;;;2.30;;
18917;SDS011;9591;52.742;13.650;2023-07-30T07:55:16;7.07;;;2.40;;
18917;SDS011;9591;52.742;13.650;2023-07-30T07:58:03;3.83;;;2.30;;
18917;SDS011;9591;52.742;13.650;2023-07-30T08:00:53;4.33;;;2.27;;
18917;SDS011;9591;52.742;13.650;2023-07-30T08:03:41;3.67;;;2.47;;
18917;SDS011;9591;52.742;13.650;2023-07-30T08:06:28;4.53;;;2.60;;
18917;SDS011;9591;52.742;13.650;2023-07-30T08:09:16;2.60;;;2.40;;
18917;SDS011;9591;52.742;13.650;2023-07-30T08:12:03;2.50;;;2.30;;
18917;SDS011;9591;52.742;13.650;2023-07-30T08:14:50;3.70;;;2.33;;
18917;SDS011;9591;52.742;13.650;2023-07-30T08:17:37;2.30;;;2.10;;
18917;SDS011;9591;52.742;13.650;2023-07-30T08:20:25;2.33;;;2.10;;
18917;SDS011;9591;52.742;13.650;2023-07-30T08:23:12;2.50;;;2.30;;
18917;SDS011;9591;52.742;13.650;2023-07-30T08:25:58;3.07;;;2.40;;
18917;SDS011;9591;52.742;13.650;2023-07-30T08:28:45;3.63;;;2.20;;
18917;SDS011;9591;52.742;13.650;2023-07-30T08:31:32;3.43;;;2.40;;
18917;SDS011;9591;52.742;13.650;2023-07-30T08:34:21;5.07;;;2.30;;
18917;SDS011;9591;52.742;13.650;2023-07-30T08:37:09;9.47;;;3.40;;
18917;SDS011;9591;52.742;13.650;2023-07-30T08:39:56;2.90;;;2.50;;
18917;SDS011;9591;52.742;13.650;2023-07-30T08:42:43;3.27;;;2.60;;
18917;SDS011;9591;52.742;13.650;2023-07-30T08:45:30;4.17;;;2.50;;
18917;SDS011;9591;52.742;13.650;2023-07-30T08:48:16;5.87;;;2.30;;
18917;SDS011;9591;52.742;13.650;2023-07-30T08:51:03;3.30;;;2.60;;
18917;SDS011;9591;52.742;13.650;2023-07-30T08:53:52;3.73;;;2.93;;
18917;SDS011;9591;52.742;13.650;2023-07-30T08:56:39;4.00;;;3.13;;
18917;SDS011;9591;52.742;13.650;2023-07-30T08:59:26;3.73;;;2.90;;
18917;SDS011;9591;52.742;13.650;2023-07-30T09:02:18;4.53;;;2.90;;
18917;SDS011;9591;52.742;13.650;2023-07-30T09:05:11;5.50;;;3.40;;
18917;SDS011;9591;52.742;13.650;2023-07-30T09:07:58;5.23;;;3.40;;
18917;SDS011;9591;52.742;13.650;2023-07-30T19:53:28;5.63;;;3.00;;
18917;SDS011;9591;52.742;13.650;2023-07-30T19:56:15;10.23;;;3.40;;
18917;SDS011;9591;52.742;13.650;2023-07-30T19:59:02;4.93;;;3.10;;
18917;SDS011;9591;52.742;13.650;2023-07-30T20:01:49;9.33;;;3.67;;
18917;SDS011;9591;52.742;13.650;2023-07-30T20:04:37;8.50;;;3.00;;
18917;SDS011;9591;52.742;13.650;2023-07-30T20:07:30;5.37;;;2.90;;
18917;SDS011;9591;52.742;13.650;2023-07-30T20:10:18;3.17;;;2.73;;
18917;SDS011;9591;52.742;13.650;2023-07-30T20:13:05;5.93;;;3.00;;
18917;SDS011;9591;52.742;13.650;2023-07-30T20:15:54;5.80;;;2.67;;
18917;SDS011;9591;52.742;13.650;2023-07-30T20:18:41;7.93;;;2.80;;
18917;SDS011;9591;52.742;13.650;2023-07-30T20:21:28;8.03;;;2.90;;
18917;SDS011;9591;52.742;13.650;2023-07-30T20:24:17;6.53;;;3.10;;
18917;SDS011;9591;52.742;13.650;2023-07-30T20:27:05;4.37;;;2.97;;
18917;SDS011;9591;52.742;13.650;2023-07-30T20:29:52;2.97;;;2.70;;
18917;SDS011;9591;52.742;13.650;2023-07-30T20:32:39;8.30;;;2.70;;
18917;SDS011;9591;52.742;13.650;2023-07-30T20:35:26;9.40;;;3.33;;
18917;SDS011;9591;52.742;13.650;2023-07-30T20:38:13;3.60;;;2.77;;
18917;SDS011;9591;52.742;13.650;2023-07-30T20:41:00;6.03;;;3.27;;
18917;SDS011;9591;52.742;13.650;2023-07-30T20:43:48;6.47;;;2.57;;
18917;SDS011;9591;52.742;13.650;2023-07-30T20:46:35;6.23;;;2.87;;
18917;SDS011;9591;52.742;13.650;2023-07-30T20:49:23;6.57;;;2.90;;
18917;SDS011;9591;52.742;13.650;2023-07-30T20:52:11;5.37;;;2.97;;
18917;SDS011;9591;52.742;13.650;2023-07-30T20:54:58;6.27;;;2.70;;
18917;SDS011;9591;52.742;13.650;2023-07-30T20:57:45;7.23;;;3.20;;
18917;SDS011;9591;52.742;13.650;2023-07-30T21:00:34;4.87;;;2.90;;
18917;SDS011;9591;52.742;13.650;2023-07-30T21:03:22;4.97;;;3.30;;
18917;SDS011;9591;52.742;13.650;2023-07-30T21:06:09;9.13;;;3.10;;
18917;SDS011;9591;52.742;13.650;2023-07-30T21:08:57;4.40;;;2.97;;
18917;SDS011;9591;52.742;13.650;2023-07-30T21:11:44;7.10;;;3.30;;
18917;SDS011;9591;52.742;13.650;2023-07-30T21:14:31;7.27;;;2.90;;
18917;SDS011;9591;52.742;13.650;2023-07-30T21:17:19;10.53;;;3.23;;
18917;SDS011;9591;52.742;13.650;2023-07-30T21:20:07;5.80;;;3.10;;
18917;SDS011;9591;52.742;13.650;2023-07-30T21:22:54;7.00;;;3.30;;
18917;SDS011;9591;52.742;13.650;2023-07-30T21:25:41;4.90;;;3.10;;
18917;SDS011;9591;52.742;13.650;2023-07-30T21:28:28;5.60;;;3.07;;
18917;SDS011;9591;52.742;13.650;2023-07-30T21:31:15;4.17;;;2.90;;
18917;SDS011;9591;52.742;13.650;2023-07-30T21:34:03;4.23;;;2.90;;
18917;SDS011;9591;52.742;13.650;2023-07-30T21:36:50;4.60;;;2.87;;
18917;SDS011;9591;52.742;13.650;2023-07-30T21:39:37;9.10;;;3.07;;
18917;SDS011;9591;52.742;13.650;2023-07-30T21:42:24;6.47;;;3.00;;
18917;SDS011;9591;52.742;13.650;2023-07-30T21:45:12;4.07;;;3.60;;
18917;SDS011;9591;52.742;13.650;2023-07-30T21:47:59;5.90;;;2.93;;
18917;SDS011;9591;52.742;13.650;2023-07-30T21:50:49;4.33;;;3.20;;
18917;SDS011;9591;52.742;13.650;2023-07-30T21:53:43;7.70;;;3.43;;
18917;SDS011;9591;52.742;13.650;2023-07-30T21:56:30;5.43;;;3.03;;
18917;SDS011;9591;52.742;13.650;2023-07-30T21:59:17;5.60;;;2.93;;
18917;SDS011;9591;52.742;13.650;2023-07-30T22:02:04;9.27;;;3.33;;
18917;SDS011;9591;52.742;13.650;2023-07-30T22:04:51;11.00;;;4.33;;
18917;SDS011;9591;52.742;13.650;2023-07-30T22:07:54;6.40;;;3.30;;
18917;SDS011;9591;52.742;13.650;2023-07-30T22:10:43;7.27;;;3.33;;
18917;SDS011;9591;52.742;13.650;2023-07-30T22:13:30;4.80;;;3.17;;
18917;SDS011;9591;52.742;13.650;2023-07-30T22:16:17;13.43;;;4.50;;
18917;SDS011;9591;52.742;13.650;2023-07-30T22:19:04;6.40;;;3.50;;
18917;SDS011;9591;52.742;13.650;2023-07-30T22:21:51;7.63;;;3.73;;
18917;SDS011;9591;52.742;13.650;2023-07-30T22:24:39;9.30;;;3.93;;
18917;SDS011;9591;52.742;13.650;2023-07-30T22:27:26;6.17;;;3.57;;
18917;SDS011;9591;52.742;13.650;2023-07-30T22:30:13;8.83;;;4.20;;
18917;SDS011;9591;52.742;13.650;2023-07-30T22:33:00;5.93;;;3.50;;
18917;SDS011;9591;52.742;13.650;2023-07-30T22:35:51;5.33;;;3.30;;
18917;SDS011;9591;52.742;13.650;2023-07-30T22:38:39;15.63;;;3.40;;
18917;SDS011;9591;52.742;13.650;2023-07-30T22:41:28;6.47;;;3.23;;
18917;SDS011;9591;52.742;13.650;2023-07-30T22:44:15;4.93;;;3.27;;
18917;SDS011;9591;52.742;13.650;2023-07-30T22:47:02;6.17;;;3.50;;
18917;SDS011;9591;52.742;13.650;2023-07-30T22:49:49;4.97;;;3.00;;
18917;SDS011;9591;52.742;13.650;2023-07-30T22:52:36;7.70;;;3.00;;
18917;SDS011;9591;52.742;13.650;2023-07-30T22:55:22;7.93;;;2.87;;
18917;SDS011;9591;52.742;13.650;2023-07-30T22:58:11;6.07;;;3.33;;
18917;SDS011;9591;52.742;13.650;2023-07-30T23:00:58;8.70;;;2.70;;
18917;SDS011;9591;52.742;13.650;2023-07-30T23:03:45;12.27;;;2.97;;
18917;SDS011;9591;52.742;13.650;2023-07-30T23:06:32;4.47;;;2.60;;
18917;SDS011;9591;52.742;13.650;2023-07-30T23:09:20;5.97;;;2.60;;
18917;SDS011;9591;52.742;13.650;2023-07-30T23:12:08;3.70;;;2.90;;
18917;SDS011;9591;52.742;13.650;2023-07-30T23:14:56;5.20;;;2.83;;
18917;SDS011;9591;52.742;13.650;2023-07-30T23:17:43;4.53;;;2.63;;
18917;SDS011;9591;52.742;13.650;2023-07-30T23:20:30;8.13;;;2.57;;
18917;SDS011;9591;52.742;13.650;2023-07-30T23:23:17;5.47;;;2.47;;
18917;SDS011;9591;52.742;13.650;2023-07-30T23:26:05;4.40;;;2.63;;
18917;SDS011;9591;52.742;13.650;2023-07-30T23:28:52;4.20;;;3.03;;
18917;SDS011;9591;52.742;13.650;2023-07-30T23:31:40;6.27;;;2.47;;
18917;SDS011;9591;52.742;13.650;2023-07-30T23:34:27;7.20;;;2.60;;
18917;SDS011;9591;52.742;13.650;2023-07-30T23:37:15;9.77;;;2.73;;
18917;SDS011;9591;52.742;13.650;2023-07-30T23:40:03;8.00;;;3.03;;
18917;SDS011;9591;52.742;13.650;2023-07-30T23:42:53;6.10;;;2.60;;
18917;SDS011;9591;52.742;13.650;2023-07-30T23:45:41;3.73;;;2.30;;
18917;SDS011;9591;52.742;13.650;2023-07-30T23:48:29;5.07;;;2.57;;
18917;SDS011;9591;52.742;13.650;2023-07-30T23:51:16;4.97;;;2.07;;
18917;SDS011;9591;52.742;13.650;2023-07-30T23:54:03;2.50;;;2.30;;
18917;SDS011;9591;52.742;13.650;2023-07-30T23:56:50;2.57;;;2.37;;
18917;SDS011;9591;52.742;13.650;2023-07-30T23:59:37;5.27;;;2.13;;
